sensor_id;sensor_type;location;lat;lon;timestamp;pressure;altitude;pressure_sealevel;temperature;humidity
9525;BME280;15940;48.734;9.112;2024-03-02T00:00:51;95360.81;;;4.95;100.00
9525;BME280;15940;48.734;9.112;2024-03-02T00:03:19;95358.38;;;4.97;100.00
9525;BME280;15940;48.734;9.112;2024-03-02T00:05:49;95351.34;;;5.05;100.00
9525;BME280;15940;48.734;9.112;2024-03-02T00:08:23;95353.56;;;5.07;100.00
9525;BME280;15940;48.734;9.112;2024-03-02T00:10:51;95361.84;;;5.03;100.00
9525;BME280;15940;48.734;9.112;2024-03-02T00:13:22;95357.16;;;4.98;100.00
9525;BME280;15940;48.734;9.112;2024-03-02T00:15:52;95359.88;;;5.04;100.00
9525;BME280;15940;48.734;9.112;2024-03-02T00:18:25;95352.59;;;5.10;100.00
9525;BME280;15940;48.734;9.112;2024-03-02T00:20:54;95352.09;;;5.06;100.00
9525;BME280;15940;48.734;9.112;2024-03-02T00:23:23;95350.38;;;5.03;100.00
9525;BME280;15940;48.734;9.112;2024-03-02T00:25:53;95346.97;;;5.08;100.00
9525;BME280;15940;48.734;9.112;2024-03-02T00:28:25;95360.16;;;5.11;99.56
9525;BME280;15940;48.734;9.112;2024-03-02T00:30:56;95359.22;;;5.20;99.58
9525;BME280;15940;48.734;9.112;2024-03-02T00:33:26;95361.72;;;5.24;98.97
9525;BME280;15940;48.734;9.112;2024-03-02T00:35:54;95364.41;;;5.24;97.81
9525;BME280;15940;48.734;9.112;2024-03-02T00:38:22;95365.38;;;5.26;97.83
9525;BME280;15940;48.734;9.112;2024-03-02T00:40:49;95365.13;;;5.24;97.61
9525;BME280;15940;48.734;9.112;2024-03-02T00:43:44;95354.59;;;5.21;98.48
9525;BME280;15940;48.734;9.112;2024-03-02T00:46:13;95358.06;;;5.27;98.41
9525;BME280;15940;48.734;9.112;2024-03-02T00:48:54;95360.72;;;5.21;97.96
9525;BME280;15940;48.734;9.112;2024-03-02T00:51:22;95356.28;;;5.18;98.16
9525;BME280;15940;48.734;9.112;2024-03-02T00:53:50;95361.47;;;5.22;98.65
9525;BME280;15940;48.734;9.112;2024-03-02T00:56:18;95353.59;;;5.12;98.65
9525;BME280;15940;48.734;9.112;2024-03-02T00:58:47;95352.19;;;5.23;100.00
9525;BME280;15940;48.734;9.112;2024-03-02T01:01:14;95349.94;;;5.15;98.45
9525;BME280;15940;48.734;9.112;2024-03-02T01:03:41;95352.38;;;5.13;100.00
9525;BME280;15940;48.734;9.112;2024-03-02T01:06:09;95354.28;;;5.07;98.57
9525;BME280;15940;48.734;9.112;2024-03-02T01:08:36;95358.66;;;5.05;98.75
9525;BME280;15940;48.734;9.112;2024-03-02T01:11:03;95353.06;;;5.08;99.81
9525;BME280;15940;48.734;9.112;2024-03-02T01:13:30;95355.72;;;5.03;98.93
9525;BME280;15940;48.734;9.112;2024-03-02T01:15:59;95345.00;;;5.08;98.98
9525;BME280;15940;48.734;9.112;2024-03-02T01:18:26;95350.88;;;5.07;99.93
9525;BME280;15940;48.734;9.112;2024-03-02T01:20:53;95349.41;;;5.06;99.07
9525;BME280;15940;48.734;9.112;2024-03-02T01:23:22;95343.56;;;5.07;98.82
9525;BME280;15940;48.734;9.112;2024-03-02T01:25:49;95339.66;;;5.08;99.32
9525;BME280;15940;48.734;9.112;2024-03-02T01:28:16;95343.06;;;5.03;98.74
9525;BME280;15940;48.734;9.112;2024-03-02T01:30:43;95341.28;;;4.95;99.71
9525;BME280;15940;48.734;9.112;2024-03-02T01:33:11;95353.19;;;4.88;99.44
9525;BME280;15940;48.734;9.112;2024-03-02T01:35:38;95348.06;;;4.84;99.46
9525;BME280;15940;48.734;9.112;2024-03-02T01:38:05;95352.94;;;4.86;99.87
9525;BME280;15940;48.734;9.112;2024-03-02T01:40:33;95343.13;;;4.77;100.00
9525;BME280;15940;48.734;9.112;2024-03-02T01:43:01;95350.91;;;4.75;100.00
9525;BME280;15940;48.734;9.112;2024-03-02T01:45:28;95348.44;;;4.72;100.00
9525;BME280;15940;48.734;9.112;2024-03-02T01:47:55;95334.25;;;4.66;100.00
9525;BME280;15940;48.734;9.112;2024-03-02T01:50:28;95348.31;;;4.55;100.00
9525;BME280;15940;48.734;9.112;2024-03-02T01:52:56;95352.66;;;4.52;100.00
9525;BME280;15940;48.734;9.112;2024-03-02T01:55:23;95352.88;;;4.49;100.00
9525;BME280;15940;48.734;9.112;2024-03-02T01:57:52;95352.56;;;4.41;100.00
9525;BME280;15940;48.734;9.112;2024-03-02T02:00:20;95351.34;;;4.37;100.00
9525;BME280;15940;48.734;9.112;2024-03-02T02:02:47;95347.69;;;4.40;100.00
9525;BME280;15940;48.734;9.112;2024-03-02T02:05:15;95349.63;;;4.39;100.00
9525;BME280;15940;48.734;9.112;2024-03-02T02:07:44;95345.91;;;4.31;100.00
9525;BME280;15940;48.734;9.112;2024-03-02T02:10:11;95344.19;;;4.28;100.00
9525;BME280;15940;48.734;9.112;2024-03-02T02:12:38;95340.97;;;4.24;100.00
9525;BME280;15940;48.734;9.112;2024-03-02T02:15:25;95343.38;;;4.22;100.00
9525;BME280;15940;48.734;9.112;2024-03-02T02:17:52;95342.19;;;4.23;100.00
9525;BME280;15940;48.734;9.112;2024-03-02T02:20:19;95338.59;;;4.06;100.00
9525;BME280;15940;48.734;9.112;2024-03-02T02:23:01;95348.25;;;3.97;100.00
9525;BME280;15940;48.734;9.112;2024-03-02T02:25:28;95340.69;;;3.96;100.00
9525;BME280;15940;48.734;9.112;2024-03-02T02:27:56;95338.22;;;3.92;100.00
9525;BME280;15940;48.734;9.112;2024-03-02T02:30:25;95337.16;;;3.84;100.00
9525;BME280;15940;48.734;9.112;2024-03-02T02:32:53;95335.22;;;3.85;100.00
9525;BME280;15940;48.734;9.112;2024-03-02T02:35:20;95327.44;;;3.87;100.00
9525;BME280;15940;48.734;9.112;2024-03-02T02:37:47;95328.72;;;3.91;100.00
9525;BME280;15940;48.734;9.112;2024-03-02T02:40:17;95330.47;;;3.94;100.00
9525;BME280;15940;48.734;9.112;2024-03-02T02:42:45;95322.53;;;4.06;100.00
9525;BME280;15940;48.734;9.112;2024-03-02T02:45:12;95315.69;;;4.05;100.00
9525;BME280;15940;48.734;9.112;2024-03-02T02:47:40;95318.19;;;4.08;100.00
9525;BME280;15940;48.734;9.112;2024-03-02T02:50:08;95309.19;;;4.11;100.00
9525;BME280;15940;48.734;9.112;2024-03-02T02:52:37;95313.81;;;4.11;100.00
9525;BME280;15940;48.734;9.112;2024-03-02T02:55:08;95308.34;;;3.99;100.00
9525;BME280;15940;48.734;9.112;2024-03-02T02:57:38;95319.06;;;3.99;100.00
9525;BME280;15940;48.734;9.112;2024-03-02T03:00:08;95317.06;;;3.94;100.00
9525;BME280;15940;48.734;9.112;2024-03-02T03:02:40;95315.81;;;3.90;100.00
9525;BME280;15940;48.734;9.112;2024-03-02T03:05:08;95319.25;;;3.96;100.00
9525;BME280;15940;48.734;9.112;2024-03-02T03:07:35;95319.25;;;3.96;100.00
9525;BME280;15940;48.734;9.112;2024-03-02T03:10:02;95319.00;;;3.94;100.00
9525;BME280;15940;48.734;9.112;2024-03-02T03:12:30;95321.91;;;3.90;100.00
9525;BME280;15940;48.734;9.112;2024-03-02T03:14:58;95323.25;;;3.80;100.00
9525;BME280;15940;48.734;9.112;2024-03-02T03:17:25;95312.97;;;3.73;100.00
9525;BME280;15940;48.734;9.112;2024-03-02T03:19:52;95317.34;;;3.76;100.00
9525;BME280;15940;48.734;9.112;2024-03-02T03:22:20;95319.38;;;3.81;100.00
9525;BME280;15940;48.734;9.112;2024-03-02T03:24:47;95318.56;;;3.75;100.00
9525;BME280;15940;48.734;9.112;2024-03-02T03:27:14;95318.66;;;3.81;100.00
9525;BME280;15940;48.734;9.112;2024-03-02T03:29:41;95318.91;;;3.83;100.00
9525;BME280;15940;48.734;9.112;2024-03-02T03:32:09;95319.69;;;3.89;100.00
9525;BME280;15940;48.734;9.112;2024-03-02T03:34:36;95313.41;;;3.92;100.00
9525;BME280;15940;48.734;9.112;2024-03-02T03:37:03;95322.91;;;3.93;100.00
9525;BME280;15940;48.734;9.112;2024-03-02T03:39:30;95320.16;;;3.87;100.00
9525;BME280;15940;48.734;9.112;2024-03-02T03:41:57;95318.16;;;3.82;100.00
9525;BME280;15940;48.734;9.112;2024-03-02T03:44:24;95320.25;;;3.72;100.00
9525;BME280;15940;48.734;9.112;2024-03-02T03:46:51;95316.84;;;3.72;100.00
9525;BME280;15940;48.734;9.112;2024-03-02T03:49:19;95314.34;;;3.68;100.00
9525;BME280;15940;48.734;9.112;2024-03-02T03:51:46;95315.56;;;3.67;100.00
9525;BME280;15940;48.734;9.112;2024-03-02T03:54:13;95314.78;;;3.61;100.00
9525;BME280;15940;48.734;9.112;2024-03-02T03:56:40;95322.66;;;3.50;100.00
9525;BME280;15940;48.734;9.112;2024-03-02T03:59:07;95324.28;;;3.42;100.00
9525;BME280;15940;48.734;9.112;2024-03-02T04:01:34;95322.00;;;3.35;100.00
9525;BME280;15940;48.734;9.112;2024-03-02T04:04:01;95325.09;;;3.48;100.00
9525;BME280;15940;48.734;9.112;2024-03-02T04:06:30;95327.22;;;3.44;100.00
9525;BME280;15940;48.734;9.112;2024-03-02T04:08:58;95326.09;;;3.30;100.00
9525;BME280;15940;48.734;9.112;2024-03-02T04:11:25;95322.41;;;3.28;100.00
9525;BME280;15940;48.734;9.112;2024-03-02T04:13:51;95322.66;;;3.30;100.00
9525;BME280;15940;48.734;9.112;2024-03-02T04:16:18;95318.47;;;3.23;100.00
9525;BME280;15940;48.734;9.112;2024-03-02T04:18:45;95317.53;;;3.26;100.00
9525;BME280;15940;48.734;9.112;2024-03-02T04:21:12;95317.72;;;3.23;100.00
9525;BME280;15940;48.734;9.112;2024-03-02T04:23:40;95313.66;;;3.27;100.00
9525;BME280;15940;48.734;9.112;2024-03-02T04:26:08;95318.25;;;3.27;100.00
9525;BME280;15940;48.734;9.112;2024-03-02T04:28:35;95321.41;;;3.25;100.00
9525;BME280;15940;48.734;9.112;2024-03-02T04:31:02;95318.25;;;3.27;100.00
9525;BME280;15940;48.734;9.112;2024-03-02T04:33:29;95325.28;;;3.24;100.00
9525;BME280;15940;48.734;9.112;2024-03-02T04:35:56;95328.97;;;3.27;100.00
9525;BME280;15940;48.734;9.112;2024-03-02T04:38:23;95326.75;;;3.25;100.00
9525;BME280;15940;48.734;9.112;2024-03-02T04:40:51;95330.16;;;3.26;100.00
9525;BME280;15940;48.734;9.112;2024-03-02T04:43:17;95327.03;;;3.27;100.00
9525;BME280;15940;48.734;9.112;2024-03-02T04:45:44;95328.31;;;3.32;100.00
9525;BME280;15940;48.734;9.112;2024-03-02T04:48:11;95313.56;;;3.22;100.00
9525;BME280;15940;48.734;9.112;2024-03-02T04:50:38;95325.56;;;3.26;100.00
9525;BME280;15940;48.734;9.112;2024-03-02T04:53:06;95323.22;;;3.13;100.00
9525;BME280;15940;48.734;9.112;2024-03-02T04:55:33;95329.41;;;3.05;100.00
9525;BME280;15940;48.734;9.112;2024-03-02T04:58:30;95328.69;;;3.04;100.00
9525;BME280;15940;48.734;9.112;2024-03-02T05:00:57;95324.34;;;3.07;100.00
9525;BME280;15940;48.734;9.112;2024-03-02T05:03:24;95320.97;;;3.12;100.00
9525;BME280;15940;48.734;9.112;2024-03-02T05:05:51;95323.00;;;3.17;100.00
9525;BME280;15940;48.734;9.112;2024-03-02T05:08:18;95321.53;;;3.16;100.00
9525;BME280;15940;48.734;9.112;2024-03-02T05:10:45;95330.94;;;3.11;100.00
9525;BME280;15940;48.734;9.112;2024-03-02T05:13:12;95328.56;;;3.13;100.00
9525;BME280;15940;48.734;9.112;2024-03-02T05:15:40;95334.91;;;3.16;100.00
9525;BME280;15940;48.734;9.112;2024-03-02T05:18:07;95319.34;;;3.14;100.00
9525;BME280;15940;48.734;9.112;2024-03-02T05:20:34;95324.94;;;3.17;100.00
9525;BME280;15940;48.734;9.112;2024-03-02T05:23:01;95331.34;;;3.04;100.00
9525;BME280;15940;48.734;9.112;2024-03-02T05:25:27;95331.28;;;2.99;100.00
9525;BME280;15940;48.734;9.112;2024-03-02T05:27:54;95335.25;;;3.03;100.00
9525;BME280;15940;48.734;9.112;2024-03-02T05:30:21;95327.38;;;3.00;100.00
9525;BME280;15940;48.734;9.112;2024-03-02T05:32:49;95335.16;;;2.98;100.00
9525;BME280;15940;48.734;9.112;2024-03-02T05:35:16;95339.19;;;2.93;100.00
9525;BME280;15940;48.734;9.112;2024-03-02T05:37:44;95344.56;;;2.93;100.00
9525;BME280;15940;48.734;9.112;2024-03-02T05:40:11;95340.03;;;2.99;100.00
9525;BME280;15940;48.734;9.112;2024-03-02T05:42:38;95334.69;;;2.99;100.00
9525;BME280;15940;48.734;9.112;2024-03-02T05:45:08;95347.84;;;3.03;100.00
9525;BME280;15940;48.734;9.112;2024-03-02T05:47:34;95354.97;;;3.06;100.00
9525;BME280;15940;48.734;9.112;2024-03-02T05:50:04;95355.59;;;3.01;100.00
9525;BME280;15940;48.734;9.112;2024-03-02T05:52:32;95345.47;;;3.05;100.00
9525;BME280;15940;48.734;9.112;2024-03-02T05:54:59;95350.88;;;3.10;100.00
9525;BME280;15940;48.734;9.112;2024-03-02T05:57:26;95344.06;;;3.09;100.00
9525;BME280;15940;48.734;9.112;2024-03-02T06:00:11;95343.28;;;3.24;100.00
9525;BME280;15940;48.734;9.112;2024-03-02T06:02:39;95343.59;;;3.31;100.00
9525;BME280;15940;48.734;9.112;2024-03-02T06:05:08;95347.78;;;3.32;100.00
9525;BME280;15940;48.734;9.112;2024-03-02T06:07:35;95348.44;;;3.27;100.00
9525;BME280;15940;48.734;9.112;2024-03-02T06:10:03;95344.94;;;3.21;100.00
9525;BME280;15940;48.734;9.112;2024-03-02T06:12:32;95349.50;;;3.15;100.00
9525;BME280;15940;48.734;9.112;2024-03-02T06:14:59;95351.50;;;3.20;100.00
9525;BME280;15940;48.734;9.112;2024-03-02T06:17:26;95354.59;;;3.33;100.00
9525;BME280;15940;48.734;9.112;2024-03-02T06:19:53;95350.38;;;3.47;100.00
9525;BME280;15940;48.734;9.112;2024-03-02T06:22:22;95345.38;;;3.55;100.00
9525;BME280;15940;48.734;9.112;2024-03-02T06:24:50;95345.56;;;3.51;100.00
9525;BME280;15940;48.734;9.112;2024-03-02T06:27:17;95347.16;;;3.63;100.00
9525;BME280;15940;48.734;9.112;2024-03-02T06:29:44;95353.25;;;3.64;100.00
9525;BME280;15940;48.734;9.112;2024-03-02T06:32:11;95358.81;;;3.60;100.00
9525;BME280;15940;48.734;9.112;2024-03-02T06:34:38;95366.03;;;3.54;100.00
9525;BME280;15940;48.734;9.112;2024-03-02T06:37:05;95363.09;;;3.52;100.00
9525;BME280;15940;48.734;9.112;2024-03-02T06:39:33;95361.94;;;3.59;100.00
9525;BME280;15940;48.734;9.112;2024-03-02T06:42:02;95363.25;;;3.63;100.00
9525;BME280;15940;48.734;9.112;2024-03-02T06:44:28;95367.97;;;3.74;100.00
9525;BME280;15940;48.734;9.112;2024-03-02T06:46:55;95370.44;;;3.78;100.00
9525;BME280;15940;48.734;9.112;2024-03-02T06:49:22;95369.56;;;3.86;100.00
9525;BME280;15940;48.734;9.112;2024-03-02T06:51:49;95369.16;;;3.93;100.00
9525;BME280;15940;48.734;9.112;2024-03-02T06:54:16;95366.09;;;4.00;100.00
9525;BME280;15940;48.734;9.112;2024-03-02T06:56:44;95373.31;;;3.94;100.00
9525;BME280;15940;48.734;9.112;2024-03-02T06:59:11;95371.84;;;3.93;100.00
9525;BME280;15940;48.734;9.112;2024-03-02T07:01:38;95375.00;;;3.92;100.00
9525;BME280;15940;48.734;9.112;2024-03-02T07:04:05;95371.09;;;3.93;100.00
9525;BME280;15940;48.734;9.112;2024-03-02T07:06:32;95369.97;;;3.99;100.00
9525;BME280;15940;48.734;9.112;2024-03-02T07:08:59;95373.03;;;4.13;100.00
9525;BME280;15940;48.734;9.112;2024-03-02T07:11:26;95370.66;;;4.20;100.00
9525;BME280;15940;48.734;9.112;2024-03-02T07:13:54;95372.47;;;4.29;100.00
9525;BME280;15940;48.734;9.112;2024-03-02T07:16:21;95371.81;;;4.40;100.00
9525;BME280;15940;48.734;9.112;2024-03-02T07:18:54;95375.22;;;4.40;100.00
9525;BME280;15940;48.734;9.112;2024-03-02T07:21:22;95376.75;;;4.47;100.00
9525;BME280;15940;48.734;9.112;2024-03-02T07:23:49;95370.03;;;4.57;100.00
9525;BME280;15940;48.734;9.112;2024-03-02T07:26:17;95369.69;;;4.75;100.00
9525;BME280;15940;48.734;9.112;2024-03-02T07:28:45;95373.69;;;4.91;100.00
9525;BME280;15940;48.734;9.112;2024-03-02T07:31:15;95373.72;;;4.97;100.00
9525;BME280;15940;48.734;9.112;2024-03-02T07:33:44;95361.47;;;4.90;99.10
9525;BME280;15940;48.734;9.112;2024-03-02T07:36:11;95367.59;;;4.91;99.54
9525;BME280;15940;48.734;9.112;2024-03-02T07:38:38;95372.22;;;4.90;100.00
9525;BME280;15940;48.734;9.112;2024-03-02T07:41:06;95371.22;;;4.87;99.73
9525;BME280;15940;48.734;9.112;2024-03-02T07:43:34;95373.97;;;4.93;99.90
9525;BME280;15940;48.734;9.112;2024-03-02T07:46:01;95380.63;;;5.03;100.00
9525;BME280;15940;48.734;9.112;2024-03-02T07:48:30;95379.34;;;4.99;99.43
9525;BME280;15940;48.734;9.112;2024-03-02T07:50:57;95384.84;;;5.15;100.00
9525;BME280;15940;48.734;9.112;2024-03-02T07:53:24;95382.59;;;5.08;98.61
9525;BME280;15940;48.734;9.112;2024-03-02T07:55:51;95391.59;;;5.05;98.96
9525;BME280;15940;48.734;9.112;2024-03-02T07:58:18;95382.38;;;5.12;99.44
9525;BME280;15940;48.734;9.112;2024-03-02T08:00:46;95390.69;;;5.20;98.50
9525;BME280;15940;48.734;9.112;2024-03-02T08:03:13;95380.25;;;5.22;98.87
9525;BME280;15940;48.734;9.112;2024-03-02T08:05:42;95380.06;;;5.31;97.55
9525;BME280;15940;48.734;9.112;2024-03-02T08:08:08;95388.56;;;5.29;97.48
9525;BME280;15940;48.734;9.112;2024-03-02T08:10:37;95386.38;;;5.28;96.64
9525;BME280;15940;48.734;9.112;2024-03-02T08:13:04;95377.19;;;5.45;97.11
9525;BME280;15940;48.734;9.112;2024-03-02T08:15:31;95387.06;;;5.65;95.62
9525;BME280;15940;48.734;9.112;2024-03-02T08:17:58;95380.25;;;5.76;94.46
9525;BME280;15940;48.734;9.112;2024-03-02T08:20:25;95376.13;;;5.86;92.17
9525;BME280;15940;48.734;9.112;2024-03-02T08:22:53;95374.00;;;5.95;93.21
9525;BME280;15940;48.734;9.112;2024-03-02T08:25:21;95378.00;;;6.28;91.67
9525;BME280;15940;48.734;9.112;2024-03-02T08:27:48;95375.84;;;6.54;90.93
9525;BME280;15940;48.734;9.112;2024-03-02T08:30:15;95369.97;;;6.50;87.14
9525;BME280;15940;48.734;9.112;2024-03-02T08:32:43;95369.00;;;6.48;89.06
9525;BME280;15940;48.734;9.112;2024-03-02T08:35:10;95375.13;;;6.65;87.36
9525;BME280;15940;48.734;9.112;2024-03-02T08:37:39;95365.56;;;6.86;88.25
9525;BME280;15940;48.734;9.112;2024-03-02T08:40:10;95364.34;;;6.82;86.12
9525;BME280;15940;48.734;9.112;2024-03-02T08:42:38;95374.13;;;6.91;86.83
9525;BME280;15940;48.734;9.112;2024-03-02T08:45:06;95378.50;;;7.10;85.98
9525;BME280;15940;48.734;9.112;2024-03-02T08:47:33;95369.94;;;7.23;84.29
9525;BME280;15940;48.734;9.112;2024-03-02T08:50:00;95373.59;;;7.31;83.22
9525;BME280;15940;48.734;9.112;2024-03-02T08:52:27;95372.81;;;7.53;84.18
9525;BME280;15940;48.734;9.112;2024-03-02T08:54:54;95368.78;;;7.82;82.71
9525;BME280;15940;48.734;9.112;2024-03-02T08:57:22;95378.00;;;8.03;80.44
9525;BME280;15940;48.734;9.112;2024-03-02T08:59:49;95381.56;;;8.23;77.18
9525;BME280;15940;48.734;9.112;2024-03-02T09:02:16;95374.63;;;8.33;77.93
9525;BME280;15940;48.734;9.112;2024-03-02T09:04:43;95370.75;;;8.34;75.69
9525;BME280;15940;48.734;9.112;2024-03-02T09:07:10;95379.28;;;8.44;75.30
9525;BME280;15940;48.734;9.112;2024-03-02T09:09:37;95372.47;;;8.37;75.05
9525;BME280;15940;48.734;9.112;2024-03-02T09:12:05;95373.03;;;8.60;77.03
9525;BME280;15940;48.734;9.112;2024-03-02T09:14:35;95375.38;;;8.75;74.37
9525;BME280;15940;48.734;9.112;2024-03-02T09:17:03;95372.59;;;8.86;74.75
9525;BME280;15940;48.734;9.112;2024-03-02T09:19:30;95377.56;;;9.06;73.90
9525;BME280;15940;48.734;9.112;2024-03-02T09:21:57;95373.31;;;9.16;73.72
9525;BME280;15940;48.734;9.112;2024-03-02T09:24:24;95367.84;;;9.47;74.50
9525;BME280;15940;48.734;9.112;2024-03-02T09:26:51;95364.78;;;9.80;72.00
9525;BME280;15940;48.734;9.112;2024-03-02T09:29:18;95360.88;;;10.19;67.73
9525;BME280;15940;48.734;9.112;2024-03-02T09:31:47;95359.34;;;10.42;68.48
9525;BME280;15940;48.734;9.112;2024-03-02T09:34:15;95363.78;;;10.91;67.01
9525;BME280;15940;48.734;9.112;2024-03-02T09:36:42;95360.91;;;11.02;64.71
9525;BME280;15940;48.734;9.112;2024-03-02T09:39:09;95349.47;;;11.22;63.72
9525;BME280;15940;48.734;9.112;2024-03-02T09:41:37;95346.22;;;11.37;61.87
9525;BME280;15940;48.734;9.112;2024-03-02T09:44:04;95345.28;;;11.74;62.12
9525;BME280;15940;48.734;9.112;2024-03-02T09:46:32;95341.97;;;12.28;62.83
9525;BME280;15940;48.734;9.112;2024-03-02T09:49:00;95336.38;;;12.47;58.12
9525;BME280;15940;48.734;9.112;2024-03-02T09:51:27;95336.06;;;12.51;58.94
9525;BME280;15940;48.734;9.112;2024-03-02T09:53:55;95340.34;;;12.67;60.08
9525;BME280;15940;48.734;9.112;2024-03-02T09:56:22;95347.31;;;12.97;56.66
9525;BME280;15940;48.734;9.112;2024-03-02T09:58:49;95336.59;;;13.69;56.52
9525;BME280;15940;48.734;9.112;2024-03-02T10:01:16;95333.84;;;14.05;56.36
9525;BME280;15940;48.734;9.112;2024-03-02T10:03:44;95337.22;;;14.34;53.19
9525;BME280;15940;48.734;9.112;2024-03-02T10:06:25;95337.53;;;14.30;53.48
9525;BME280;15940;48.734;9.112;2024-03-02T10:08:53;95329.00;;;14.26;54.31
9525;BME280;15940;48.734;9.112;2024-03-02T10:11:28;95331.28;;;13.99;51.99
9525;BME280;15940;48.734;9.112;2024-03-02T10:14:07;95331.41;;;13.86;53.27
9525;BME280;15940;48.734;9.112;2024-03-02T10:16:35;95331.97;;;13.85;54.31
9525;BME280;15940;48.734;9.112;2024-03-02T10:19:19;95329.13;;;14.06;51.99
9525;BME280;15940;48.734;9.112;2024-03-02T10:21:49;95332.53;;;13.98;51.12
9525;BME280;15940;48.734;9.112;2024-03-02T10:24:16;95327.69;;;14.05;52.09
9525;BME280;15940;48.734;9.112;2024-03-02T10:26:44;95322.63;;;14.16;51.66
9525;BME280;15940;48.734;9.112;2024-03-02T10:29:11;95318.44;;;14.15;50.51
9525;BME280;15940;48.734;9.112;2024-03-02T10:31:39;95315.56;;;14.13;50.76
9525;BME280;15940;48.734;9.112;2024-03-02T10:34:06;95322.84;;;14.26;49.45
9525;BME280;15940;48.734;9.112;2024-03-02T10:36:34;95320.81;;;14.19;51.72
9525;BME280;15940;48.734;9.112;2024-03-02T10:39:04;95323.78;;;14.36;50.85
9525;BME280;15940;48.734;9.112;2024-03-02T10:41:33;95319.44;;;14.41;49.56
9525;BME280;15940;48.734;9.112;2024-03-02T10:44:03;95320.19;;;13.97;50.57
9525;BME280;15940;48.734;9.112;2024-03-02T10:46:33;95314.84;;;14.28;50.87
9525;BME280;15940;48.734;9.112;2024-03-02T10:49:02;95308.00;;;14.42;49.58
9525;BME280;15940;48.734;9.112;2024-03-02T10:51:31;95307.28;;;14.49;50.07
9525;BME280;15940;48.734;9.112;2024-03-02T10:53:59;95301.78;;;14.34;51.21
9525;BME280;15940;48.734;9.112;2024-03-02T10:56:30;95295.75;;;14.13;52.62
9525;BME280;15940;48.734;9.112;2024-03-02T10:59:03;95290.41;;;14.51;52.66
9525;BME280;15940;48.734;9.112;2024-03-02T11:01:32;95289.88;;;14.68;52.36
9525;BME280;15940;48.734;9.112;2024-03-02T11:04:02;95294.59;;;14.67;52.59
9525;BME280;15940;48.734;9.112;2024-03-02T11:06:31;95289.53;;;14.79;53.01
9525;BME280;15940;48.734;9.112;2024-03-02T11:09:04;95292.59;;;14.60;51.26
9525;BME280;15940;48.734;9.112;2024-03-02T11:11:40;95286.25;;;14.50;51.53
9525;BME280;15940;48.734;9.112;2024-03-02T11:14:13;95284.25;;;14.73;52.46
9525;BME280;15940;48.734;9.112;2024-03-02T11:16:40;95280.09;;;14.80;52.36
9525;BME280;15940;48.734;9.112;2024-03-02T11:19:10;95270.78;;;14.45;52.05
9525;BME280;15940;48.734;9.112;2024-03-02T11:21:38;95272.63;;;14.50;50.50
9525;BME280;15940;48.734;9.112;2024-03-02T11:24:31;95260.44;;;14.81;51.93
9525;BME280;15940;48.734;9.112;2024-03-02T11:27:01;95260.06;;;14.93;52.23
9525;BME280;15940;48.734;9.112;2024-03-02T11:29:46;95254.97;;;14.97;51.75
9525;BME280;15940;48.734;9.112;2024-03-02T11:32:20;95257.91;;;14.91;51.66
9525;BME280;15940;48.734;9.112;2024-03-02T11:34:50;95261.47;;;15.24;52.55
9525;BME280;15940;48.734;9.112;2024-03-02T11:37:18;95256.69;;;15.48;49.98
9525;BME280;15940;48.734;9.112;2024-03-02T11:39:47;95251.25;;;15.48;50.53
9525;BME280;15940;48.734;9.112;2024-03-02T11:42:17;95246.03;;;15.27;50.65
9525;BME280;15940;48.734;9.112;2024-03-02T11:44:46;95244.94;;;15.30;50.25
9525;BME280;15940;48.734;9.112;2024-03-02T11:47:16;95228.63;;;14.92;49.83
9525;BME280;15940;48.734;9.112;2024-03-02T11:49:45;95235.03;;;14.79;50.87
9525;BME280;15940;48.734;9.112;2024-03-02T11:52:14;95228.47;;;14.82;51.86
9525;BME280;15940;48.734;9.112;2024-03-02T11:54:44;95227.56;;;14.72;51.33
9525;BME280;15940;48.734;9.112;2024-03-02T11:57:15;95229.56;;;14.71;52.93
9525;BME280;15940;48.734;9.112;2024-03-02T11:59:44;95224.66;;;14.62;50.55
9525;BME280;15940;48.734;9.112;2024-03-02T12:02:19;95225.19;;;14.68;52.37
9525;BME280;15940;48.734;9.112;2024-03-02T12:04:47;95217.22;;;14.70;51.80
9525;BME280;15940;48.734;9.112;2024-03-02T12:07:19;95216.47;;;14.85;52.22
9525;BME280;15940;48.734;9.112;2024-03-02T12:09:47;95209.38;;;14.97;52.81
9525;BME280;15940;48.734;9.112;2024-03-02T12:12:14;95206.44;;;14.95;49.65
9525;BME280;15940;48.734;9.112;2024-03-02T12:14:52;95203.38;;;14.83;50.66
9525;BME280;15940;48.734;9.112;2024-03-02T12:17:21;95204.66;;;14.90;51.04
9525;BME280;15940;48.734;9.112;2024-03-02T12:19:49;95196.31;;;14.88;49.86
9525;BME280;15940;48.734;9.112;2024-03-02T12:22:15;95208.63;;;15.04;50.45
9525;BME280;15940;48.734;9.112;2024-03-02T12:24:43;95193.69;;;15.13;50.37
9525;BME280;15940;48.734;9.112;2024-03-02T12:27:12;95187.69;;;15.14;50.46
9525;BME280;15940;48.734;9.112;2024-03-02T12:29:39;95196.38;;;15.28;49.14
9525;BME280;15940;48.734;9.112;2024-03-02T12:32:08;95183.66;;;15.23;49.26
9525;BME280;15940;48.734;9.112;2024-03-02T12:34:35;95184.88;;;15.37;50.88
9525;BME280;15940;48.734;9.112;2024-03-02T12:37:02;95190.06;;;15.66;49.19
9525;BME280;15940;48.734;9.112;2024-03-02T12:39:29;95178.16;;;15.38;48.41
9525;BME280;15940;48.734;9.112;2024-03-02T12:41:58;95173.41;;;15.39;50.11
9525;BME280;15940;48.734;9.112;2024-03-02T12:44:25;95177.53;;;15.55;49.83
9525;BME280;15940;48.734;9.112;2024-03-02T12:46:52;95171.88;;;15.61;50.09
9525;BME280;15940;48.734;9.112;2024-03-02T12:49:22;95166.91;;;15.75;49.05
9525;BME280;15940;48.734;9.112;2024-03-02T12:51:49;95166.59;;;15.95;49.66
9525;BME280;15940;48.734;9.112;2024-03-02T12:54:22;95167.53;;;15.90;46.72
9525;BME280;15940;48.734;9.112;2024-03-02T12:56:51;95165.44;;;16.06;48.24
9525;BME280;15940;48.734;9.112;2024-03-02T12:59:21;95163.38;;;16.14;48.41
9525;BME280;15940;48.734;9.112;2024-03-02T13:01:52;95162.38;;;16.27;47.56
9525;BME280;15940;48.734;9.112;2024-03-02T13:04:24;95164.63;;;16.21;48.57
9525;BME280;15940;48.734;9.112;2024-03-02T13:06:52;95166.56;;;16.03;48.71
9525;BME280;15940;48.734;9.112;2024-03-02T13:09:19;95152.00;;;16.00;48.69
9525;BME280;15940;48.734;9.112;2024-03-02T13:11:46;95148.38;;;15.98;47.52
9525;BME280;15940;48.734;9.112;2024-03-02T13:14:13;95150.53;;;15.99;47.68
9525;BME280;15940;48.734;9.112;2024-03-02T13:16:40;95141.97;;;16.03;46.76
9525;BME280;15940;48.734;9.112;2024-03-02T13:19:07;95157.53;;;16.18;48.53